createdAt,value
2023-03-17T06:22:03.722Z,10.60
2023-03-17T06:25:05.948Z,10.60
2023-03-17T06:28:07.649Z,10.70
2023-03-17T06:31:09.493Z,10.70
2023-03-17T06:34:11.987Z,10.70
2023-03-17T06:37:13.741Z,10.70
2023-03-17T06:40:16.205Z,10.70
2023-03-17T06:43:19.534Z,10.80
2023-03-17T06:46:21.580Z,10.80
2023-03-17T06:49:23.270Z,10.80
2023-03-17T06:52:25.501Z,10.80
2023-03-17T06:55:27.398Z,10.80
2023-03-17T06:58:29.348Z,10.80
2023-03-17T07:01:31.535Z,10.80
2023-03-17T07:04:33.310Z,10.80
2023-03-17T07:07:35.614Z,10.80
2023-03-17T07:10:37.381Z,10.80
2023-03-17T07:13:39.846Z,10.80
2023-03-17T07:16:41.544Z,10.80
2023-03-17T07:19:43.684Z,10.80
2023-03-17T07:22:45.452Z,10.90
2023-03-17T07:25:47.473Z,10.90
2023-03-17T07:28:49.170Z,11.00
2023-03-17T07:31:51.209Z,11.00
2023-03-17T07:34:53.030Z,11.00
2023-03-17T07:37:55.301Z,11.00
2023-03-17T07:40:57.019Z,11.00
2023-03-17T07:43:58.874Z,11.10
2023-03-17T07:47:00.526Z,11.10
2023-03-17T07:50:02.277Z,11.10
2023-03-17T07:53:04.618Z,11.10
2023-03-17T07:56:06.893Z,11.10
2023-03-17T07:59:10.927Z,11.10
2023-03-17T08:02:16.403Z,11.00
2023-03-17T08:05:18.298Z,11.00
2023-03-17T08:08:22.124Z,11.00
2023-03-17T08:11:24.168Z,10.90
2023-03-17T08:14:25.962Z,10.90
2023-03-17T08:17:27.593Z,10.90
2023-03-17T08:20:29.962Z,11.00
2023-03-17T08:23:32.372Z,11.00
2023-03-17T08:26:34.410Z,11.00
2023-03-17T08:29:36.101Z,11.10
2023-03-17T08:32:37.997Z,11.10
2023-03-17T08:35:41.618Z,11.10
2023-03-17T08:38:43.674Z,11.30
2023-03-17T08:41:45.962Z,11.40
2023-03-17T08:44:47.617Z,11.50
2023-03-17T08:47:49.292Z,11.50
2023-03-17T08:50:51.295Z,11.50
2023-03-17T08:53:53.965Z,11.50
2023-03-17T08:56:55.584Z,11.50
2023-03-17T08:59:57.208Z,11.50
2023-03-17T09:02:59.162Z,11.50
2023-03-17T09:06:00.871Z,11.40
2023-03-17T09:09:02.529Z,11.40
2023-03-17T09:12:05.648Z,11.40
2023-03-17T09:15:07.854Z,11.40
2023-03-17T09:18:10.500Z,11.40
2023-03-17T09:21:12.743Z,11.40
2023-03-17T09:24:14.672Z,11.50
2023-03-17T09:27:16.317Z,11.50
2023-03-17T09:30:18.732Z,11.50
2023-03-17T09:33:20.940Z,11.50
2023-03-17T09:36:23.612Z,11.60
2023-03-17T09:39:25.342Z,11.70
2023-03-17T09:42:38.586Z,11.70
2023-03-17T09:45:43.429Z,11.80
2023-03-17T09:49:01.781Z,11.90
2023-03-17T09:52:03.833Z,11.90
2023-03-17T09:55:08.499Z,11.90
2023-03-17T09:58:10.333Z,12.10
2023-03-17T10:01:13.432Z,12.20
2023-03-17T10:04:18.279Z,12.40
2023-03-17T10:07:27.034Z,12.50
2023-03-17T10:10:43.635Z,12.70
2023-03-17T10:13:55.003Z,12.80
2023-03-17T10:17:11.855Z,12.60
2023-03-17T10:20:26.324Z,12.50
2023-03-17T10:23:29.996Z,12.30
2023-03-17T10:26:39.831Z,12.40
2023-03-17T10:29:42.123Z,12.40
2023-03-17T10:32:44.384Z,12.30
2023-03-17T10:35:46.792Z,12.40
2023-03-17T10:38:52.558Z,12.40
2023-03-17T10:42:00.333Z,12.40
2023-03-17T10:45:07.477Z,12.40
2023-03-17T10:48:09.581Z,12.50
2023-03-17T10:51:13.716Z,12.50
2023-03-17T10:54:18.946Z,12.60
2023-03-17T10:57:20.777Z,12.70
2023-03-17T11:00:23.173Z,12.70
2023-03-17T11:03:34.145Z,12.70
2023-03-17T11:06:42.226Z,12.70
2023-03-17T11:09:44.560Z,12.60
2023-03-17T11:12:52.944Z,12.50
2023-03-17T11:16:00.396Z,12.50
2023-03-17T11:19:02.479Z,12.50
2023-03-17T11:22:16.667Z,12.50
2023-03-17T11:25:23.460Z,12.50
2023-03-17T11:28:31.063Z,12.50
2023-03-17T11:31:35.110Z,12.50
2023-03-17T11:35:10.818Z,12.60
2023-03-17T11:38:22.459Z,12.50
2023-03-17T11:41:51.028Z,12.50
2023-03-17T11:45:04.621Z,12.50
2023-03-17T11:48:22.656Z,12.50
2023-03-17T11:51:43.462Z,12.50
2023-03-17T11:54:48.208Z,12.50
2023-03-17T11:57:56.876Z,12.50
2023-03-17T12:01:00.387Z,12.50
2023-03-17T12:04:05.524Z,12.40
2023-03-17T12:07:21.316Z,12.30
2023-03-17T12:10:33.496Z,12.40
2023-03-17T12:13:46.573Z,12.50
2023-03-17T12:16:50.213Z,12.50
2023-03-17T12:19:58.413Z,12.50
2023-03-17T12:23:16.569Z,12.50
2023-03-17T12:26:20.201Z,12.50
2023-03-17T12:29:25.556Z,12.50
2023-03-17T12:32:44.674Z,12.50
2023-03-17T12:35:46.395Z,12.40
2023-03-17T12:39:01.856Z,12.50
2023-03-17T12:42:18.619Z,12.50
2023-03-17T12:45:46.052Z,12.50
2023-03-17T12:48:50.691Z,12.60
2023-03-17T12:52:12.410Z,12.70
2023-03-17T12:55:15.971Z,12.70
2023-03-17T12:58:32.777Z,12.60
2023-03-17T13:01:46.430Z,12.50
2023-03-17T13:04:57.777Z,12.60
2023-03-17T13:08:01.561Z,12.60
2023-03-17T13:11:26.094Z,12.60
2023-03-17T13:14:41.038Z,12.60
2023-03-17T13:17:42.688Z,12.50
2023-03-17T13:20:59.354Z,12.50
2023-03-17T13:24:16.216Z,12.70
2023-03-17T13:27:32.831Z,12.70
2023-03-17T13:30:34.433Z,12.80
2023-03-17T13:33:41.048Z,12.80
2023-03-17T13:37:15.294Z,12.90
2023-03-17T13:40:19.988Z,12.90
2023-03-17T13:43:58.911Z,13.00
2023-03-17T13:47:27.158Z,13.00
2023-03-17T13:50:31.843Z,13.00
2023-03-17T13:53:45.773Z,12.90
2023-03-17T13:56:50.877Z,13.00
2023-03-17T14:00:15.038Z,13.10
2023-03-17T14:03:23.315Z,13.50
2023-03-17T14:06:36.186Z,13.90
2023-03-17T14:09:39.140Z,14.30
2023-03-17T14:12:52.441Z,14.40
2023-03-17T14:15:59.821Z,14.50
2023-03-17T14:19:17.827Z,14.30
2023-03-17T14:22:23.894Z,14.30
2023-03-17T14:25:27.106Z,14.40
2023-03-17T14:28:30.520Z,14.50
2023-03-17T14:31:32.283Z,14.60
2023-03-17T14:34:34.068Z,14.50
2023-03-17T14:37:37.266Z,14.40
2023-03-17T14:40:38.875Z,14.40
2023-03-17T14:43:41.428Z,14.50
2023-03-17T14:46:43.071Z,14.80
2023-03-17T14:49:44.684Z,14.90
2023-03-17T14:52:46.539Z,14.90
2023-03-17T14:55:48.213Z,14.90
2023-03-17T14:58:50.892Z,14.70
2023-03-17T15:01:57.280Z,14.80
2023-03-17T15:05:02.400Z,15.00
2023-03-17T15:08:41.132Z,15.30
2023-03-17T15:11:43.576Z,15.50
2023-03-17T15:14:45.936Z,15.40
2023-03-17T15:17:50.602Z,15.80
2023-03-17T15:20:52.284Z,16.10
2023-03-17T15:23:53.977Z,16.50
2023-03-17T15:27:06.979Z,17.00
2023-03-17T15:30:09.613Z,17.50
2023-03-17T15:33:21.150Z,17.90
2023-03-17T15:36:32.356Z,18.30
2023-03-17T15:39:34.526Z,18.40
2023-03-17T15:42:37.720Z,18.30
2023-03-17T15:45:39.360Z,17.80
2023-03-17T15:48:41.007Z,17.00
2023-03-17T15:51:42.736Z,16.70
2023-03-17T15:54:45.462Z,16.80
2023-03-17T15:57:54.806Z,17.50
2023-03-17T16:00:57.297Z,17.50
2023-03-17T16:03:59.107Z,16.80
2023-03-17T16:07:00.790Z,16.40
2023-03-17T16:10:02.455Z,17.00
2023-03-17T16:13:04.324Z,17.50
2023-03-17T16:16:06.191Z,18.10
2023-03-17T16:19:28.136Z,18.50
2023-03-17T16:22:41.776Z,18.70
2023-03-17T16:25:43.849Z,19.20
2023-03-17T16:28:46.274Z,19.00
2023-03-17T16:31:49.248Z,18.40
2023-03-17T16:34:50.886Z,18.00
2023-03-17T16:37:54.105Z,17.40
2023-03-17T16:41:00.155Z,17.10
2023-03-17T16:44:02.190Z,17.40
2023-03-17T16:47:04.073Z,17.10
2023-03-17T16:50:14.383Z,16.60
2023-03-17T16:53:16.306Z,16.00
2023-03-17T16:56:21.921Z,15.60
2023-03-17T16:59:28.230Z,15.20
2023-03-17T17:02:30.118Z,15.10
2023-03-17T17:05:32.116Z,15.40
2023-03-17T17:08:33.806Z,16.00
2023-03-17T17:11:35.777Z,16.50
2023-03-17T17:14:37.458Z,16.50
2023-03-17T17:17:40.486Z,16.40
2023-03-17T17:20:42.267Z,16.00
2023-03-17T17:23:44.522Z,15.60
2023-03-17T17:26:46.213Z,15.20
2023-03-17T17:29:48.066Z,14.80
2023-03-17T17:32:50.147Z,14.50
2023-03-17T17:35:52.481Z,14.20
2023-03-17T17:38:54.233Z,14.00
2023-03-17T17:41:56.365Z,13.90
2023-03-17T17:44:58.062Z,13.60
2023-03-17T17:47:59.730Z,13.50
2023-03-17T17:51:02.626Z,13.30
2023-03-17T17:54:04.565Z,13.10
2023-03-17T17:57:07.008Z,13.00
2023-03-17T18:00:10.407Z,12.90
2023-03-17T18:03:12.299Z,12.70
2023-03-17T18:06:14.004Z,12.60
2023-03-17T18:09:18.053Z,12.50
2023-03-17T18:12:19.732Z,12.40
2023-03-17T18:15:21.952Z,12.30
2023-03-17T18:18:23.717Z,12.20
2023-03-17T18:21:25.564Z,12.10
2023-03-17T18:24:27.285Z,12.00
2023-03-17T18:27:28.956Z,11.90
2023-03-17T18:30:31.622Z,11.90
2023-03-17T18:33:33.726Z,11.80
2023-03-17T18:36:35.652Z,11.70
2023-03-17T18:39:37.290Z,11.70
2023-03-17T18:42:39.035Z,11.70
2023-03-17T18:45:40.711Z,11.50
2023-03-17T18:48:42.397Z,11.50
2023-03-17T18:51:44.293Z,11.50
2023-03-17T18:54:46.008Z,11.40
2023-03-17T18:57:47.716Z,11.30
2023-03-17T19:00:50.180Z,11.30
2023-03-17T19:03:52.052Z,11.20
2023-03-17T19:06:53.818Z,11.20
2023-03-17T19:09:55.835Z,11.20
2023-03-17T19:12:58.781Z,11.10
2023-03-17T19:16:00.549Z,11.10
2023-03-17T19:19:02.764Z,11.10
2023-03-17T19:22:04.484Z,11.10
2023-03-17T19:25:06.649Z,11.00
2023-03-17T19:28:08.495Z,11.00
2023-03-17T19:31:10.492Z,11.00
2023-03-17T19:34:13.074Z,10.90
2023-03-17T19:37:14.889Z,10.90
2023-03-17T19:40:16.845Z,10.80
2023-03-17T19:43:36.838Z,10.70
2023-03-17T19:46:41.332Z,10.70
2023-03-17T19:49:43.298Z,10.70
2023-03-17T19:52:46.148Z,10.70
2023-03-17T19:55:47.805Z,10.60
2023-03-17T19:58:49.727Z,10.60
2023-03-17T20:01:52.382Z,10.60
2023-03-17T20:04:54.603Z,10.50
2023-03-17T20:07:56.299Z,10.50
2023-03-17T20:10:58.377Z,10.50
2023-03-17T20:14:01.463Z,10.50
2023-03-17T20:17:04.451Z,10.50
2023-03-17T20:20:07.746Z,10.40
2023-03-17T20:23:09.397Z,10.40
2023-03-17T20:26:11.100Z,10.50
2023-03-17T20:29:14.276Z,10.40
2023-03-17T20:32:17.165Z,10.40
2023-03-17T20:35:18.858Z,10.30
2023-03-17T20:38:21.176Z,10.30
2023-03-17T20:41:23.931Z,10.30
2023-03-17T20:44:25.708Z,10.30
2023-03-17T20:47:28.212Z,10.30
2023-03-17T20:50:31.055Z,10.30
2023-03-17T20:53:34.259Z,10.30
2023-03-17T20:56:37.374Z,10.30
2023-03-17T20:59:39.692Z,10.40
2023-03-17T21:02:41.919Z,10.40
2023-03-17T21:05:43.704Z,10.40
2023-03-17T21:08:46.087Z,10.40
2023-03-17T21:11:49.210Z,10.40
2023-03-17T21:14:54.361Z,10.30
2023-03-17T21:17:56.083Z,10.30
2023-03-17T21:20:58.213Z,10.30
2023-03-17T21:24:02.004Z,10.30
2023-03-17T21:27:05.572Z,10.30
2023-03-17T21:30:09.677Z,10.30
2023-03-17T21:33:11.615Z,10.30
2023-03-17T21:36:13.301Z,10.30
2023-03-17T21:39:15.064Z,10.20
2023-03-17T21:42:16.872Z,10.20
2023-03-17T21:45:18.721Z,10.10
2023-03-17T21:48:20.760Z,10.10
2023-03-17T21:51:22.888Z,10.20
